Time;durP1;ratioP1;P1;durP2;ratioP2;P2;SDS_P1;SDS_P2;PMS_P1;PMS_P2;Temp;Humidity;BMP_temperature;BMP_pressure;BME280_temperature;BME280_humidity;BME280_pressure;Samples;Min_cycle;Max_cycle;Signal;HPM_P1;HPM_P2
2021/05/26 00:00:36;;;;;;;3.25;1.02;;;;;;;;;;5100839;28;20044;-68
2021/05/26 00:03:04;;;;;;;2.58;1.00;;;;;;;;;;5091623;28;20048;-68
2021/05/26 00:05:32;;;;;;;1.75;0.80;;;;;;;;;;5091911;28;20517;-68
2021/05/26 00:08:00;;;;;;;3.05;1.00;;;;;;;;;;5110816;28;20562;-68
2021/05/26 00:10:28;;;;;;;2.20;0.70;;;;;;;;;;5107231;27;20126;-68
2021/05/26 00:12:56;;;;;;;2.35;0.90;;;;;;;;;;5110140;28;20047;-68
2021/05/26 00:15:23;;;;;;;6.93;0.90;;;;;;;;;;5111401;28;20138;-68
2021/05/26 00:17:51;;;;;;;3.15;0.98;;;;;;;;;;5110473;28;20130;-68
2021/05/26 00:20:19;;;;;;;4.10;0.85;;;;;;;;;;5112088;28;20078;-68
2021/05/26 00:22:48;;;;;;;5.93;1.10;;;;;;;;;;5111949;28;20130;-68
2021/05/26 00:25:15;;;;;;;2.95;0.80;;;;;;;;;;5111356;28;20075;-68
2021/05/26 00:27:44;;;;;;;2.17;0.70;;;;;;;;;;5109856;28;20048;-68
2021/05/26 00:30:12;;;;;;;2.28;0.82;;;;;;;;;;5125701;27;20078;-68
2021/05/26 00:32:39;;;;;;;5.28;0.95;;;;;;;;;;5111513;28;20502;-68
2021/05/26 00:35:09;;;;;;;2.08;0.85;;;;;;;;;;5111465;28;20079;-68
2021/05/26 00:37:37;;;;;;;2.88;0.60;;;;;;;;;;5110645;28;20043;-68
2021/05/26 00:40:10;;;;;;;3.53;1.27;;;;;;;;;;5111427;28;20051;-68
2021/05/26 00:42:39;;;;;;;3.00;0.93;;;;;;;;;;5110611;28;20546;-68
2021/05/26 00:45:07;;;;;;;3.35;1.10;;;;;;;;;;5113594;27;20143;-68
2021/05/26 00:47:36;;;;;;;4.78;1.08;;;;;;;;;;5110503;28;20123;-68
2021/05/26 00:50:04;;;;;;;3.95;0.70;;;;;;;;;;5111084;28;20161;-68
2021/05/26 00:52:32;;;;;;;1.40;0.60;;;;;;;;;;5111295;28;20043;-68
2021/05/26 00:55:00;;;;;;;1.88;0.95;;;;;;;;;;5111701;28;20047;-68
2021/05/26 00:57:29;;;;;;;2.55;0.90;;;;;;;;;;5109800;28;20499;-68
2021/05/26 00:59:57;;;;;;;7.60;1.00;;;;;;;;;;5115145;27;20051;-68
2021/05/26 01:02:25;;;;;;;1.42;0.77;;;;;;;;;;5098222;22;20050;-59
2021/05/26 01:04:52;;;;;;;3.58;0.73;;;;;;;;;;5007566;28;20132;-59
2021/05/26 01:07:20;;;;;;;2.38;0.70;;;;;;;;;;5006627;28;20053;-59
2021/05/26 01:09:48;;;;;;;2.63;0.90;;;;;;;;;;5003231;28;20400;-59
2021/05/26 01:12:16;;;;;;;1.42;0.65;;;;;;;;;;5016467;28;20042;-59
2021/05/26 01:14:44;;;;;;;2.58;0.80;;;;;;;;;;5007829;28;20077;-59
2021/05/26 01:17:12;;;;;;;4.80;0.90;;;;;;;;;;5023207;28;20130;-59
2021/05/26 01:19:40;;;;;;;2.45;0.90;;;;;;;;;;5007064;28;20404;-59
2021/05/26 01:22:09;;;;;;;9.45;1.00;;;;;;;;;;5007524;28;20564;-59
2021/05/26 01:24:37;;;;;;;2.97;1.00;;;;;;;;;;5007104;28;20050;-59
2021/05/26 01:27:05;;;;;;;1.65;0.57;;;;;;;;;;5006363;28;20041;-59
2021/05/26 01:29:33;;;;;;;2.45;0.80;;;;;;;;;;5007146;28;20493;-59
2021/05/26 01:32:01;;;;;;;3.05;0.88;;;;;;;;;;5006753;28;20061;-59
2021/05/26 01:34:29;;;;;;;4.18;1.13;;;;;;;;;;5007160;28;20089;-59
2021/05/26 01:36:57;;;;;;;5.53;1.35;;;;;;;;;;5007174;28;20165;-59
2021/05/26 01:39:25;;;;;;;4.47;1.10;;;;;;;;;;5007996;28;20133;-59
2021/05/26 01:41:55;;;;;;;6.78;1.00;;;;;;;;;;5006689;28;20060;-59
2021/05/26 01:44:25;;;;;;;3.53;1.55;;;;;;;;;;5006393;28;20048;-59
2021/05/26 01:46:52;;;;;;;3.83;1.08;;;;;;;;;;5007918;28;20054;-59
2021/05/26 01:49:20;;;;;;;2.50;0.95;;;;;;;;;;5007052;28;20342;-59
2021/05/26 01:51:48;;;;;;;3.30;0.95;;;;;;;;;;5007040;28;20140;-59
2021/05/26 01:54:16;;;;;;;4.57;1.00;;;;;;;;;;5007474;28;20564;-59
2021/05/26 01:56:45;;;;;;;4.13;0.93;;;;;;;;;;5018024;28;20063;-59
2021/05/26 01:59:13;;;;;;;2.90;0.88;;;;;;;;;;5007207;28;20144;-59
2021/05/26 02:01:41;;;;;;;3.00;0.73;;;;;;;;;;5006017;28;20493;-59
2021/05/26 02:04:09;;;;;;;5.60;1.10;;;;;;;;;;5006941;28;20089;-59
2021/05/26 02:06:36;;;;;;;1.73;0.80;;;;;;;;;;5006785;28;20077;-59
2021/05/26 02:09:04;;;;;;;2.58;0.70;;;;;;;;;;5006764;28;20133;-59
2021/05/26 02:14:19;;;;;;;1.70;0.90;;;;;;;;;;5005162;28;20471;-59
2021/05/26 02:16:51;;;;;;;1.95;0.82;;;;;;;;;;5005505;28;20060;-59
2021/05/26 02:19:19;;;;;;;3.28;0.85;;;;;;;;;;5007317;28;20053;-59
2021/05/26 02:21:47;;;;;;;1.75;1.00;;;;;;;;;;5006005;28;20075;-59
2021/05/26 02:24:14;;;;;;;4.20;1.08;;;;;;;;;;5006566;28;20042;-59
2021/05/26 02:26:42;;;;;;;2.25;0.75;;;;;;;;;;5005914;28;20065;-59
2021/05/26 02:29:10;;;;;;;2.10;0.73;;;;;;;;;;5006603;28;20141;-59
2021/05/26 02:31:39;;;;;;;2.80;1.13;;;;;;;;;;5006394;28;20096;-59
2021/05/26 02:34:07;;;;;;;2.95;0.80;;;;;;;;;;5006588;28;20457;-59
2021/05/26 02:36:35;;;;;;;2.70;0.90;;;;;;;;;;5009305;28;20089;-60
2021/05/26 02:39:02;;;;;;;2.40;0.90;;;;;;;;;;5010308;28;20089;-60
2021/05/26 02:41:30;;;;;;;2.28;1.00;;;;;;;;;;5001883;28;20137;-60
2021/05/26 02:43:58;;;;;;;2.47;1.13;;;;;;;;;;5009736;28;20466;-60
2021/05/26 02:46:26;;;;;;;2.58;0.90;;;;;;;;;;5009911;28;20070;-60
2021/05/26 02:48:54;;;;;;;2.28;0.90;;;;;;;;;;5011673;28;20053;-60
2021/05/26 02:51:22;;;;;;;3.72;0.90;;;;;;;;;;4995637;28;20121;-60
2021/05/26 02:53:50;;;;;;;4.25;1.20;;;;;;;;;;5010551;28;20106;-60
2021/05/26 02:56:18;;;;;;;5.32;1.17;;;;;;;;;;5009194;28;20489;-60
2021/05/26 02:58:46;;;;;;;4.00;1.02;;;;;;;;;;5010269;28;20104;-60
2021/05/26 03:01:14;;;;;;;2.35;1.00;;;;;;;;;;5009477;28;20145;-60
2021/05/26 03:03:42;;;;;;;3.13;1.10;;;;;;;;;;5009915;28;20052;-60
2021/05/26 03:06:10;;;;;;;3.50;1.10;;;;;;;;;;5017298;28;20129;-60
2021/05/26 03:08:39;;;;;;;2.72;1.10;;;;;;;;;;5009656;28;20054;-60
2021/05/26 03:11:07;;;;;;;5.03;1.10;;;;;;;;;;5018790;28;20048;-60
2021/05/26 03:13:35;;;;;;;2.90;1.08;;;;;;;;;;5010562;28;20424;-60
2021/05/26 03:16:03;;;;;;;1.63;0.88;;;;;;;;;;5008591;28;20050;-60
2021/05/26 03:18:31;;;;;;;2.47;0.90;;;;;;;;;;5008939;28;20132;-60
2021/05/26 03:20:58;;;;;;;2.45;1.05;;;;;;;;;;5009955;28;20050;-60
2021/05/26 03:23:27;;;;;;;3.95;0.82;;;;;;;;;;5009156;28;20137;-60
2021/05/26 03:25:55;;;;;;;2.22;1.00;;;;;;;;;;5009719;28;20184;-60
2021/05/26 03:28:23;;;;;;;9.45;1.10;;;;;;;;;;5008497;28;20045;-60
2021/05/26 03:30:51;;;;;;;2.97;0.93;;;;;;;;;;5003283;28;20137;-60
2021/05/26 03:33:20;;;;;;;3.35;1.10;;;;;;;;;;5008961;28;20042;-60
2021/05/26 03:35:47;;;;;;;3.70;0.70;;;;;;;;;;5009339;28;20076;-60
2021/05/26 03:38:15;;;;;;;2.17;1.00;;;;;;;;;;5008413;28;20083;-60
2021/05/26 03:40:44;;;;;;;2.95;0.80;;;;;;;;;;5009334;28;20125;-60
2021/05/26 03:43:12;;;;;;;4.20;1.25;;;;;;;;;;5008794;28;20041;-61
2021/05/26 03:45:40;;;;;;;5.43;1.38;;;;;;;;;;5009748;28;20077;-61
2021/05/26 03:48:09;;;;;;;3.20;1.00;;;;;;;;;;5009240;28;20132;-61
2021/05/26 03:50:37;;;;;;;4.93;1.00;;;;;;;;;;5027392;28;20072;-61
2021/05/26 03:53:05;;;;;;;3.78;1.10;;;;;;;;;;5013455;28;20057;-61
2021/05/26 03:55:34;;;;;;;2.17;0.90;;;;;;;;;;5009087;28;20111;-61
2021/05/26 03:58:02;;;;;;;2.78;1.00;;;;;;;;;;5007994;28;20057;-61
2021/05/26 04:00:30;;;;;;;8.85;1.70;;;;;;;;;;5009189;28;20581;-61
2021/05/26 04:02:58;;;;;;;3.22;1.10;;;;;;;;;;5008428;28;20085;-61
2021/05/26 04:05:26;;;;;;;3.70;1.15;;;;;;;;;;5012659;28;20130;-61
2021/05/26 04:07:53;;;;;;;2.47;1.10;;;;;;;;;;5009126;28;20145;-61
2021/05/26 04:10:21;;;;;;;1.75;1.08;;;;;;;;;;5015806;28;20072;-61
2021/05/26 04:12:49;;;;;;;2.75;1.08;;;;;;;;;;4999455;28;20093;-61
2021/05/26 04:15:18;;;;;;;8.38;1.15;;;;;;;;;;5007794;28;20532;-61
2021/05/26 04:17:46;;;;;;;2.70;1.40;;;;;;;;;;5007960;28;20073;-61
2021/05/26 04:20:14;;;;;;;1.52;0.90;;;;;;;;;;5016719;28;20091;-61
2021/05/26 04:22:42;;;;;;;1.65;0.85;;;;;;;;;;5007867;28;20129;-61
2021/05/26 04:25:10;;;;;;;5.15;0.90;;;;;;;;;;5007640;28;20409;-61
2021/05/26 04:27:38;;;;;;;2.58;0.95;;;;;;;;;;5007317;28;20042;-61
2021/05/26 04:30:06;;;;;;;2.22;0.90;;;;;;;;;;5028941;28;20146;-61
2021/05/26 04:32:36;;;;;;;2.08;0.90;;;;;;;;;;5003928;28;20075;-61
2021/05/26 04:35:05;;;;;;;2.97;0.95;;;;;;;;;;5008232;28;20509;-61
2021/05/26 04:37:33;;;;;;;4.45;1.00;;;;;;;;;;5007337;28;20149;-60
2021/05/26 04:40:01;;;;;;;1.90;1.10;;;;;;;;;;5008938;28;20165;-61
2021/05/26 04:42:28;;;;;;;3.05;0.93;;;;;;;;;;5008584;28;20078;-61
2021/05/26 04:44:56;;;;;;;3.10;0.88;;;;;;;;;;5008605;28;20088;-61
2021/05/26 04:47:24;;;;;;;4.13;1.00;;;;;;;;;;5007128;28;20129;-61
2021/05/26 04:49:52;;;;;;;3.92;0.93;;;;;;;;;;5006230;28;20066;-61
2021/05/26 04:52:21;;;;;;;4.60;1.00;;;;;;;;;;4996795;28;20042;-61
2021/05/26 04:54:49;;;;;;;1.73;0.77;;;;;;;;;;5005758;28;20079;-61
2021/05/26 04:57:17;;;;;;;3.05;0.80;;;;;;;;;;5004475;28;20142;-61
2021/05/26 04:59:44;;;;;;;4.57;0.80;;;;;;;;;;5005543;28;20129;-61
2021/05/26 05:02:12;;;;;;;3.03;1.27;;;;;;;;;;5005143;28;20177;-61
2021/05/26 05:04:40;;;;;;;5.60;1.02;;;;;;;;;;5005298;28;20068;-61
2021/05/26 05:07:08;;;;;;;3.17;1.10;;;;;;;;;;5001624;28;20454;-61
2021/05/26 05:09:36;;;;;;;2.70;0.98;;;;;;;;;;5003197;28;20595;-61
2021/05/26 05:12:04;;;;;;;2.08;1.00;;;;;;;;;;5005001;28;20545;-61
2021/05/26 05:14:32;;;;;;;1.33;0.55;;;;;;;;;;5004562;28;20132;-61
2021/05/26 05:17:00;;;;;;;3.17;0.88;;;;;;;;;;5011100;28;20130;-61
2021/05/26 05:19:28;;;;;;;3.30;0.80;;;;;;;;;;5013608;28;20578;-61
2021/05/26 05:21:56;;;;;;;4.07;1.00;;;;;;;;;;5011378;28;20089;-61
2021/05/26 05:24:24;;;;;;;3.40;1.10;;;;;;;;;;5000501;28;20126;-61
2021/05/26 05:26:52;;;;;;;2.90;0.90;;;;;;;;;;5001503;28;20165;-61
2021/05/26 05:29:20;;;;;;;3.97;0.77;;;;;;;;;;5011638;28;20133;-61
2021/05/26 05:31:48;;;;;;;2.20;0.90;;;;;;;;;;5005881;28;20103;-61
2021/05/26 05:34:16;;;;;;;3.67;0.82;;;;;;;;;;5007963;28;20149;-61
2021/05/26 05:36:44;;;;;;;3.60;0.82;;;;;;;;;;5029510;28;20157;-61
2021/05/26 05:39:12;;;;;;;8.90;0.95;;;;;;;;;;5004435;28;20054;-61
2021/05/26 05:41:43;;;;;;;1.95;0.80;;;;;;;;;;5005183;28;20140;-61
2021/05/26 05:44:11;;;;;;;3.35;0.80;;;;;;;;;;5005608;28;20076;-61
2021/05/26 05:46:39;;;;;;;1.98;0.73;;;;;;;;;;5003422;28;20060;-61
2021/05/26 05:49:07;;;;;;;2.83;0.70;;;;;;;;;;5003190;28;20505;-61
2021/05/26 05:51:36;;;;;;;3.10;0.80;;;;;;;;;;5002110;28;20064;-61
2021/05/26 05:54:04;;;;;;;2.20;1.00;;;;;;;;;;5009068;28;20134;-61
2021/05/26 05:56:32;;;;;;;3.63;0.93;;;;;;;;;;5013607;28;20054;-61
2021/05/26 05:59:01;;;;;;;10.15;0.95;;;;;;;;;;5010191;28;20442;-61
2021/05/26 06:01:30;;;;;;;3.08;0.90;;;;;;;;;;5011058;28;20081;-61
2021/05/26 06:03:58;;;;;;;4.82;1.15;;;;;;;;;;5034977;28;20406;-61
2021/05/26 06:06:28;;;;;;;3.90;0.80;;;;;;;;;;5002465;28;20045;-61
2021/05/26 06:08:56;;;;;;;4.43;1.10;;;;;;;;;;5008127;28;20123;-61
2021/05/26 06:11:23;;;;;;;2.25;0.80;;;;;;;;;;5017033;28;20132;-61
2021/05/26 06:13:52;;;;;;;6.10;1.00;;;;;;;;;;5011133;28;20050;-61
2021/05/26 06:16:20;;;;;;;1.52;0.80;;;;;;;;;;5008450;28;20054;-61
2021/05/26 06:18:48;;;;;;;2.00;0.60;;;;;;;;;;5002906;28;20125;-61
2021/05/26 06:21:17;;;;;;;3.90;1.00;;;;;;;;;;5014348;28;20053;-61
2021/05/26 06:23:45;;;;;;;3.88;1.00;;;;;;;;;;5008848;28;20064;-61
2021/05/26 06:26:13;;;;;;;4.32;1.05;;;;;;;;;;5009726;28;20137;-62
2021/05/26 06:28:40;;;;;;;2.80;0.77;;;;;;;;;;5010074;28;20137;-61
2021/05/26 06:31:08;;;;;;;2.25;0.88;;;;;;;;;;5009906;28;20466;-61
2021/05/26 06:33:37;;;;;;;3.85;0.70;;;;;;;;;;5010211;28;20053;-61
2021/05/26 06:36:05;;;;;;;4.28;0.95;;;;;;;;;;5010261;28;20070;-61
2021/05/26 06:38:33;;;;;;;3.65;0.90;;;;;;;;;;5012022;28;20054;-61
2021/05/26 06:41:01;;;;;;;3.28;0.90;;;;;;;;;;5011426;28;20072;-61
2021/05/26 06:43:29;;;;;;;3.55;0.90;;;;;;;;;;5011164;28;20117;-61
2021/05/26 06:45:57;;;;;;;4.28;0.85;;;;;;;;;;5004489;28;20126;-61
2021/05/26 06:48:25;;;;;;;6.70;1.00;;;;;;;;;;5009623;28;20088;-61
2021/05/26 06:50:54;;;;;;;5.40;0.88;;;;;;;;;;5027323;28;20453;-61
2021/05/26 06:53:22;;;;;;;6.05;0.77;;;;;;;;;;5021478;28;20042;-61
2021/05/26 06:55:51;;;;;;;5.05;0.60;;;;;;;;;;5010085;28;20061;-61
2021/05/26 06:58:19;;;;;;;2.20;0.60;;;;;;;;;;5008779;28;20457;-61
2021/05/26 07:00:46;;;;;;;1.83;0.80;;;;;;;;;;5012657;28;20111;-61
2021/05/26 07:03:14;;;;;;;2.88;0.70;;;;;;;;;;5020168;28;20115;-61
2021/05/26 07:05:43;;;;;;;1.25;0.65;;;;;;;;;;5014421;28;20038;-61
2021/05/26 07:08:11;;;;;;;2.83;0.60;;;;;;;;;;5008306;28;20656;-61
2021/05/26 07:10:40;;;;;;;3.10;1.08;;;;;;;;;;5009701;28;20042;-61
2021/05/26 07:13:08;;;;;;;1.23;0.60;;;;;;;;;;5010323;28;20061;-61
2021/05/26 07:15:36;;;;;;;3.28;0.90;;;;;;;;;;5009087;28;20050;-61
2021/05/26 07:18:05;;;;;;;1.15;0.60;;;;;;;;;;5009110;28;20065;-61
2021/05/26 07:20:33;;;;;;;3.55;0.55;;;;;;;;;;5008500;28;20071;-60
2021/05/26 07:23:02;;;;;;;3.83;0.63;;;;;;;;;;5010266;28;20095;-61
2021/05/26 07:25:31;;;;;;;1.95;0.70;;;;;;;;;;5006548;28;20112;-61
2021/05/26 07:27:59;;;;;;;1.92;0.90;;;;;;;;;;5005977;28;20111;-61
2021/05/26 07:30:27;;;;;;;3.28;0.57;;;;;;;;;;5005829;28;20068;-61
2021/05/26 07:32:55;;;;;;;0.80;0.50;;;;;;;;;;5005380;28;20050;-61
2021/05/26 07:35:24;;;;;;;3.95;0.68;;;;;;;;;;5006207;28;20153;-61
2021/05/26 07:37:52;;;;;;;2.90;1.00;;;;;;;;;;4996149;28;20478;-61
2021/05/26 07:40:20;;;;;;;1.30;0.60;;;;;;;;;;5004478;28;20042;-61
2021/05/26 07:42:50;;;;;;;1.58;0.43;;;;;;;;;;5040189;28;20057;-61
2021/05/26 07:45:19;;;;;;;3.45;0.70;;;;;;;;;;5004602;28;20056;-60
2021/05/26 07:47:47;;;;;;;2.17;0.57;;;;;;;;;;5005521;28;20429;-61
2021/05/26 07:50:16;;;;;;;3.25;0.50;;;;;;;;;;5007364;28;20046;-60
2021/05/26 07:52:44;;;;;;;2.58;0.73;;;;;;;;;;5008065;28;20141;-61
2021/05/26 07:55:14;;;;;;;1.63;0.47;;;;;;;;;;5013136;28;20052;-60
2021/05/26 07:57:43;;;;;;;3.05;0.40;;;;;;;;;;5001693;28;20506;-60
2021/05/26 08:00:13;;;;;;;2.55;0.50;;;;;;;;;;5006798;28;20053;-60
2021/05/26 08:02:42;;;;;;;4.38;0.70;;;;;;;;;;5007606;28;20061;-61
2021/05/26 08:05:10;;;;;;;4.40;1.05;;;;;;;;;;5015786;28;20053;-60
2021/05/26 08:07:38;;;;;;;2.92;0.70;;;;;;;;;;5005934;28;20070;-61
2021/05/26 08:10:07;;;;;;;3.67;0.80;;;;;;;;;;5012364;28;20098;-61
2021/05/26 08:12:35;;;;;;;1.80;0.73;;;;;;;;;;5017346;28;20081;-61
2021/05/26 08:15:04;;;;;;;2.80;0.50;;;;;;;;;;5005664;28;20050;-60
2021/05/26 08:17:33;;;;;;;3.08;0.60;;;;;;;;;;5012953;28;20089;-61
2021/05/26 08:20:04;;;;;;;2.60;0.57;;;;;;;;;;5005187;28;20129;-61
2021/05/26 08:22:33;;;;;;;3.22;1.05;;;;;;;;;;5005314;28;20095;-60
2021/05/26 08:25:01;;;;;;;3.53;0.98;;;;;;;;;;5004613;28;20057;-61
2021/05/26 08:27:29;;;;;;;1.88;0.60;;;;;;;;;;5004434;28;20065;-60
2021/05/26 08:29:59;;;;;;;3.00;0.98;;;;;;;;;;5005123;28;20046;-60
2021/05/26 08:32:27;;;;;;;2.03;0.63;;;;;;;;;;5004793;28;20053;-60
2021/05/26 08:34:57;;;;;;;3.63;0.70;;;;;;;;;;5005481;28;20505;-61
2021/05/26 08:37:25;;;;;;;2.53;0.93;;;;;;;;;;5005257;28;20050;-61
2021/05/26 08:39:54;;;;;;;5.00;0.70;;;;;;;;;;5005458;28;20054;-61
2021/05/26 08:42:22;;;;;;;2.17;0.73;;;;;;;;;;5005412;28;20529;-61
2021/05/26 08:44:50;;;;;;;1.52;0.60;;;;;;;;;;5009508;28;20056;-61
2021/05/26 08:47:20;;;;;;;3.60;0.80;;;;;;;;;;5003875;28;20050;-60
2021/05/26 08:49:49;;;;;;;3.22;0.90;;;;;;;;;;5005777;28;20462;-61
2021/05/26 08:52:19;;;;;;;5.15;0.80;;;;;;;;;;4991315;28;20086;-61
2021/05/26 08:54:48;;;;;;;4.20;0.77;;;;;;;;;;4996617;28;20137;-61
2021/05/26 08:57:17;;;;;;;4.15;1.00;;;;;;;;;;5005633;28;20136;-61
2021/05/26 08:59:46;;;;;;;2.60;0.82;;;;;;;;;;5006559;28;20058;-61
2021/05/26 09:02:15;;;;;;;3.75;1.55;;;;;;;;;;5001745;28;20451;-61
2021/05/26 09:04:43;;;;;;;2.55;0.90;;;;;;;;;;5002576;28;20504;-61
2021/05/26 09:07:12;;;;;;;5.63;0.90;;;;;;;;;;5003617;28;20083;-61
2021/05/26 09:09:49;;;;;;;3.05;0.95;;;;;;;;;;5009276;28;20442;-61
2021/05/26 09:12:24;;;;;;;3.45;0.90;;;;;;;;;;5007213;28;20046;-61
2021/05/26 09:14:53;;;;;;;2.85;0.60;;;;;;;;;;5007331;28;20114;-61
2021/05/26 09:17:22;;;;;;;3.20;0.70;;;;;;;;;;5006999;28;20291;-61
2021/05/26 09:20:10;;;;;;;2.30;0.80;;;;;;;;;;5007110;28;20050;-61
2021/05/26 09:22:41;;;;;;;2.13;0.75;;;;;;;;;;4989221;28;20494;-61
2021/05/26 09:25:10;;;;;;;2.67;0.77;;;;;;;;;;4996171;28;20054;-60
2021/05/26 09:27:39;;;;;;;5.38;1.05;;;;;;;;;;5008204;28;20042;-61
2021/05/26 09:30:08;;;;;;;2.85;1.20;;;;;;;;;;5010022;28;20060;-61
2021/05/26 09:32:36;;;;;;;2.97;1.33;;;;;;;;;;5011589;28;20099;-60
2021/05/26 09:35:06;;;;;;;2.67;0.93;;;;;;;;;;5009393;28;20463;-61
2021/05/26 09:37:36;;;;;;;8.68;1.10;;;;;;;;;;5009192;28;20060;-61
2021/05/26 09:40:07;;;;;;;3.40;0.82;;;;;;;;;;5009035;28;20068;-60
2021/05/26 09:42:37;;;;;;;2.67;0.70;;;;;;;;;;5007625;28;20412;-61
2021/05/26 09:45:17;;;;;;;3.35;1.17;;;;;;;;;;5007890;28;20046;-61
2021/05/26 09:47:47;;;;;;;2.65;0.75;;;;;;;;;;5007735;28;20050;-60
2021/05/26 09:50:33;;;;;;;3.85;1.20;;;;;;;;;;5008553;28;20065;-60
2021/05/26 09:53:03;;;;;;;3.88;0.73;;;;;;;;;;5002692;28;20760;-60
2021/05/26 09:55:33;;;;;;;2.85;0.77;;;;;;;;;;5009006;28;20049;-60
2021/05/26 09:58:04;;;;;;;2.80;0.95;;;;;;;;;;5028836;28;20082;-61
2021/05/26 10:00:32;;;;;;;3.55;0.95;;;;;;;;;;5091037;28;20044;-60
2021/05/26 10:03:00;;;;;;;2.65;0.90;;;;;;;;;;5081230;28;20064;-60
2021/05/26 10:05:28;;;;;;;6.45;1.38;;;;;;;;;;5007790;28;20805;-60
2021/05/26 10:07:57;;;;;;;1.13;0.82;;;;;;;;;;5008725;28;20110;-61
2021/05/26 10:10:28;;;;;;;2.88;0.60;;;;;;;;;;5016216;28;20049;-60
2021/05/26 10:12:57;;;;;;;3.88;0.90;;;;;;;;;;5013081;28;20439;-60
2021/05/26 10:15:27;;;;;;;4.90;0.98;;;;;;;;;;5007530;28;20049;-60
2021/05/26 10:17:56;;;;;;;2.17;0.60;;;;;;;;;;5006809;28;20073;-61
2021/05/26 10:20:26;;;;;;;2.08;0.82;;;;;;;;;;5007853;28;20046;-60
2021/05/26 10:22:56;;;;;;;3.75;0.70;;;;;;;;;;5009571;28;20046;-60
2021/05/26 10:25:25;;;;;;;2.25;0.80;;;;;;;;;;5010289;28;20041;-60
2021/05/26 10:27:54;;;;;;;1.98;0.70;;;;;;;;;;5007271;28;20060;-61
2021/05/26 10:30:24;;;;;;;2.67;0.75;;;;;;;;;;5007834;28;20046;-61
2021/05/26 10:32:59;;;;;;;1.95;0.70;;;;;;;;;;5007940;28;20042;-61
2021/05/26 10:35:28;;;;;;;4.90;0.98;;;;;;;;;;5008486;28;20046;-60
2021/05/26 10:37:57;;;;;;;3.10;0.63;;;;;;;;;;5007643;28;20080;-60
2021/05/26 10:40:49;;;;;;;8.25;1.58;;;;;;;;;;5007584;28;20057;-61
2021/05/26 10:43:26;;;;;;;3.88;1.02;;;;;;;;;;5007486;28;20069;-60
2021/05/26 10:45:54;;;;;;;3.58;0.90;;;;;;;;;;5010025;28;20462;-60
2021/05/26 10:48:40;;;;;;;3.53;0.90;;;;;;;;;;5007291;28;20516;-61
2021/05/26 10:51:09;;;;;;;2.35;0.98;;;;;;;;;;5006978;28;20077;-61
2021/05/26 10:53:37;;;;;;;5.00;0.98;;;;;;;;;;4994986;28;20054;-61
2021/05/26 10:56:05;;;;;;;6.70;1.10;;;;;;;;;;4994348;28;20141;-61
2021/05/26 10:58:43;;;;;;;3.33;1.35;;;;;;;;;;5010946;28;20153;-61
2021/05/26 11:01:11;;;;;;;1.95;0.80;;;;;;;;;;5011430;28;20050;-60
2021/05/26 11:03:39;;;;;;;6.65;1.27;;;;;;;;;;5012966;28;20477;-61
2021/05/26 11:06:22;;;;;;;4.35;1.20;;;;;;;;;;5009564;28;20103;-61
2021/05/26 11:08:52;;;;;;;3.13;0.98;;;;;;;;;;4993644;28;20058;-61
2021/05/26 11:11:39;;;;;;;5.93;1.30;;;;;;;;;;5008370;28;20453;-61
2021/05/26 11:14:24;;;;;;;5.00;2.10;;;;;;;;;;5009629;28;20080;-61
2021/05/26 11:17:19;;;;;;;3.25;0.95;;;;;;;;;;5009611;28;20583;-61
2021/05/26 11:19:48;;;;;;;3.55;0.98;;;;;;;;;;5008900;28;20053;-61
2021/05/26 11:22:18;;;;;;;4.72;1.35;;;;;;;;;;5009381;28;20049;-60
2021/05/26 11:24:50;;;;;;;1.70;0.80;;;;;;;;;;5009065;28;20046;-60
2021/05/26 11:27:30;;;;;;;3.88;0.90;;;;;;;;;;5009628;28;20054;-60
2021/05/26 11:30:03;;;;;;;3.05;1.02;;;;;;;;;;5009841;28;20071;-61
2021/05/26 11:32:32;;;;;;;5.60;1.55;;;;;;;;;;5010394;28;20482;-61
2021/05/26 11:35:05;;;;;;;3.55;0.80;;;;;;;;;;5025757;28;20432;-60
2021/05/26 11:37:37;;;;;;;2.60;0.73;;;;;;;;;;5008260;28;20129;-61
2021/05/26 11:40:18;;;;;;;1.50;0.80;;;;;;;;;;5010253;28;20056;-61
2021/05/26 11:42:46;;;;;;;2.28;0.80;;;;;;;;;;4994263;28;20127;-60
2021/05/26 11:45:15;;;;;;;3.47;0.80;;;;;;;;;;5009195;28;20050;-60
2021/05/26 11:47:43;;;;;;;2.88;1.00;;;;;;;;;;5009047;28;20046;-60
2021/05/26 11:50:26;;;;;;;2.78;0.88;;;;;;;;;;5009107;28;20079;-60
2021/05/26 11:52:54;;;;;;;2.15;0.93;;;;;;;;;;5010198;28;20045;-61
2021/05/26 11:55:24;;;;;;;2.50;0.88;;;;;;;;;;5012491;28;20158;-60
2021/05/26 11:57:53;;;;;;;4.35;0.77;;;;;;;;;;5026242;28;20499;-60
2021/05/26 12:00:23;;;;;;;4.25;0.85;;;;;;;;;;5012523;28;20081;-60
2021/05/26 12:02:55;;;;;;;5.75;0.75;;;;;;;;;;5006503;28;20374;-60
2021/05/26 12:05:38;;;;;;;1.85;0.65;;;;;;;;;;5008325;28;20046;-60
2021/05/26 12:08:21;;;;;;;2.55;0.60;;;;;;;;;;5032807;28;20141;-60
2021/05/26 12:10:53;;;;;;;3.85;0.70;;;;;;;;;;5012604;28;20489;-60
2021/05/26 12:13:22;;;;;;;3.55;0.77;;;;;;;;;;5005239;28;20056;-60
2021/05/26 12:15:51;;;;;;;1.40;0.73;;;;;;;;;;4989716;28;20043;-60
2021/05/26 12:18:20;;;;;;;4.05;1.00;;;;;;;;;;5010019;28;20060;-60
2021/05/26 12:20:49;;;;;;;1.05;0.65;;;;;;;;;;4995937;28;20073;-60
2021/05/26 12:23:30;;;;;;;2.70;0.90;;;;;;;;;;5008957;28;20119;-60
2021/05/26 12:25:59;;;;;;;4.13;1.27;;;;;;;;;;5009463;28;20053;-60
2021/05/26 12:28:29;;;;;;;4.72;1.00;;;;;;;;;;5007523;28;20034;-60
2021/05/26 12:30:57;;;;;;;4.22;0.98;;;;;;;;;;5006180;28;20478;-60
2021/05/26 12:33:26;;;;;;;4.47;1.10;;;;;;;;;;5012838;28;20081;-60
2021/05/26 12:36:01;;;;;;;3.00;1.10;;;;;;;;;;5012136;28;20042;-60
2021/05/26 12:38:34;;;;;;;3.83;1.20;;;;;;;;;;5056393;28;20048;-60
2021/05/26 12:41:21;;;;;;;2.30;0.90;;;;;;;;;;3924660;28;10002008;-60
2021/05/26 12:43:50;;;;;;;4.97;1.35;;;;;;;;;;2441360;28;10002099;-60
2021/05/26 12:46:36;;;;;;;3.50;1.60;;;;;;;;;;5008108;28;20041;-60
2021/05/26 12:49:05;;;;;;;1.88;1.00;;;;;;;;;;5007652;28;20073;-61
2021/05/26 12:51:40;;;;;;;4.78;1.38;;;;;;;;;;5015665;28;20655;-60
2021/05/26 12:54:08;;;;;;;3.05;1.23;;;;;;;;;;5030837;28;20045;-60
2021/05/26 12:56:37;;;;;;;3.22;1.10;;;;;;;;;;5006781;28;20588;-60
2021/05/26 12:59:07;;;;;;;5.00;1.15;;;;;;;;;;5005666;28;20098;-60
2021/05/26 13:01:43;;;;;;;2.25;1.48;;;;;;;;;;5008346;28;20046;-60
2021/05/26 13:04:15;;;;;;;8.38;1.73;;;;;;;;;;5007850;28;20066;-60
2021/05/26 13:06:43;;;;;;;3.35;1.45;;;;;;;;;;5006250;28;20049;-60
2021/05/26 13:09:15;;;;;;;4.45;1.30;;;;;;;;;;5006651;28;20054;-60
2021/05/26 13:11:45;;;;;;;7.63;1.27;;;;;;;;;;5010155;28;20050;-60
2021/05/26 13:14:13;;;;;;;6.43;1.42;;;;;;;;;;5007871;28;20129;-60
2021/05/26 13:16:42;;;;;;;6.82;1.30;;;;;;;;;;5010543;28;20046;-60
2021/05/26 13:19:10;;;;;;;6.05;1.80;;;;;;;;;;5015318;28;20505;-60
2021/05/26 13:21:45;;;;;;;5.68;1.50;;;;;;;;;;5007510;28;20042;-60
2021/05/26 13:24:13;;;;;;;3.95;1.20;;;;;;;;;;5007856;28;20444;-60
2021/05/26 13:26:42;;;;;;;5.25;1.50;;;;;;;;;;5006892;28;20046;-60
2021/05/26 13:29:11;;;;;;;5.53;1.63;;;;;;;;;;5007966;28;20054;-60
2021/05/26 13:31:39;;;;;;;6.18;1.70;;;;;;;;;;5005242;28;20072;-60
2021/05/26 13:34:07;;;;;;;9.77;1.80;;;;;;;;;;5007955;28;20045;-60
2021/05/26 13:36:37;;;;;;;6.53;1.70;;;;;;;;;;5005595;28;20046;-60
2021/05/26 13:39:09;;;;;;;4.30;1.58;;;;;;;;;;4988427;28;20104;-60
2021/05/26 13:41:37;;;;;;;3.90;1.60;;;;;;;;;;5006874;28;20114;-60
2021/05/26 13:44:05;;;;;;;4.90;1.30;;;;;;;;;;5007157;28;20054;-60
2021/05/26 13:46:36;;;;;;;7.90;1.50;;;;;;;;;;5006230;28;20050;-60
2021/05/26 13:49:04;;;;;;;6.25;1.70;;;;;;;;;;5007083;28;20050;-60
2021/05/26 13:51:32;;;;;;;5.70;1.73;;;;;;;;;;5006397;28;20046;-60
2021/05/26 13:54:00;;;;;;;4.00;1.27;;;;;;;;;;5008338;28;20079;-60
2021/05/26 13:56:28;;;;;;;2.92;1.38;;;;;;;;;;5006438;28;20125;-60
2021/05/26 13:58:57;;;;;;;8.85;1.70;;;;;;;;;;5005487;28;20099;-60
2021/05/26 14:01:25;;;;;;;4.32;1.42;;;;;;;;;;5007387;28;20459;-60
2021/05/26 14:03:54;;;;;;;5.10;1.90;;;;;;;;;;5006506;28;20104;-61
2021/05/26 14:06:22;;;;;;;4.00;1.38;;;;;;;;;;5008843;28;20382;-60
2021/05/26 14:08:50;;;;;;;5.57;1.95;;;;;;;;;;5009830;28;20157;-60
2021/05/26 14:11:20;;;;;;;9.35;1.60;;;;;;;;;;5006058;28;20073;-60
2021/05/26 14:13:48;;;;;;;8.38;1.70;;;;;;;;;;5009221;28;20099;-60
2021/05/26 14:16:16;;;;;;;7.72;1.70;;;;;;;;;;5006899;28;20091;-60
2021/05/26 14:18:45;;;;;;;8.05;1.85;;;;;;;;;;5012312;28;20050;-60
2021/05/26 14:21:14;;;;;;;6.10;1.75;;;;;;;;;;5008411;28;20053;-60
2021/05/26 14:23:42;;;;;;;5.88;1.45;;;;;;;;;;5006875;28;20099;-60
2021/05/26 14:26:10;;;;;;;4.63;1.42;;;;;;;;;;5006636;28;20049;-60
2021/05/26 14:28:38;;;;;;;7.80;2.03;;;;;;;;;;5006948;28;20105;-60
2021/05/26 14:31:07;;;;;;;6.30;1.50;;;;;;;;;;5007266;28;20045;-60
2021/05/26 14:33:36;;;;;;;5.60;1.55;;;;;;;;;;5010271;28;20046;-60
2021/05/26 14:36:05;;;;;;;6.43;1.92;;;;;;;;;;5007479;28;20086;-61
2021/05/26 14:38:40;;;;;;;6.00;1.80;;;;;;;;;;5010101;28;20095;-60
2021/05/26 14:41:10;;;;;;;;;;;;;;;;;;5010854;28;20042;-60
2021/05/26 14:43:39;;;;;;;5.38;1.70;;;;;;;;;;5009824;28;20029;-60
2021/05/26 14:46:07;;;;;;;7.90;1.90;;;;;;;;;;5008801;28;20042;-60
2021/05/26 14:48:37;;;;;;;8.35;1.83;;;;;;;;;;5010019;28;20042;-60
2021/05/26 14:51:05;;;;;;;9.13;2.08;;;;;;;;;;5010104;28;20196;-60
2021/05/26 14:53:35;;;;;;;7.20;2.13;;;;;;;;;;5009774;28;20050;-60
2021/05/26 14:56:03;;;;;;;10.05;2.78;;;;;;;;;;5007789;28;20493;-60
2021/05/26 14:58:31;;;;;;;6.53;2.47;;;;;;;;;;5010711;28;20503;-60